This is the latest recevied weather packets stored in our database for station/object PU2ONU-13. If no packets are shown the sender has not sent any weather packets the latest 10 day(s).
| Time | Temp. | Humidity | Pressure | Rain* | Wind** | Luminosity | Snow |
|---|---|---|---|---|---|---|---|
| 1788548415 | 30.56° C | 23% | 1009 hPa | - | - | - | - |
| 1788546013 | 30.56° C | 26% | 1008 hPa | - | - | - | - |
| 1788538814 | 28.33° C | 30% | 1010 hPa | - | - | - | - |
| 1788535213 | 27.78° C | 35% | 1012 hPa | - | - | - | - |
| 1788531614 | 26.67° C | 41% | 1013 hPa | - | - | - | - |
| 1788528013 | 25.56° C | 45% | 1015 hPa | - | - | - | - |
| 1788524413 | 25° C | 50% | 1014 hPa | - | - | - | - |
| 1788522012 | 27.78° C | 39% | 1016 hPa | - | - | - | - |
| 1788520813 | 26.67° C | 40% | 1015 hPa | - | - | - | - |
| 1788518412 | 25° C | 43% | 1016 hPa | - | - | - | - |
| 1788517214 | 23.89° C | 45% | 1015 hPa | - | - | - | - |
| 1788514813 | 22.78° C | 45% | 1016 hPa | - | - | - | - |
| 1788511213 | 23.89° C | 44% | 1015 hPa | - | - | - | - |
| 1788510013 | 23.89° C | 45% | 1014 hPa | - | - | - | - |
| 1788507613 | 23.89° C | 45% | 1014 hPa | - | - | - | - |
| 1788506413 | 24.44° C | 42% | 1014 hPa | - | - | - | - |
| 1788504013 | 24.44° C | 43% | 1014 hPa | - | - | - | - |
| 1788502813 | 25° C | 42% | 1013 hPa | - | - | - | - |
| 1788500413 | 25° C | 42% | 1014 hPa | - | - | - | - |
| 1788499215 | 25.56° C | 43% | 1014 hPa | - | - | - | - |
| 1788496814 | 26.11° C | 41% | 1014 hPa | - | - | - | - |
| 1788495614 | 26.11° C | 41% | 1014 hPa | - | - | - | - |
| 1788493213 | 26.11° C | 42% | 1015 hPa | - | - | - | - |
| 1788492013 | 26.11° C | 42% | 1014 hPa | - | - | - | - |
| 1788475212 | 28.89° C | 38% | 1013 hPa | - | - | - | - |
* Rain since midnight (hover to see other rain measurements)
** Current wind speed in m/s (hover to see current wind gust speed)